Airfield :
LOGIN :

Register | Disclaimer

   EN    FR    IT 

 










Legend :    VFR   Marginal VFR   IFR   Intensive IFR   Very Intensive IFR
Visi :
Ceiling :
>= 8 km
>= 3000ft
5 to 8 km
1000 to 3000 ft
1500m to 5 km
500 to 1000 ft
800 to 1500m
200 to 500 ft
< 800m
< 200 ft
Symbols :   Thunderstorms  Fog  Heavy snow  Heavy precipitations  Wind > 20 kt
SIGMETs :     Misc.  Thunderstorms  Icing  Turbulence  Mountain Waves  Volcanic Ashes






- Airport Elevation : 584 ft


LFPV - Villacoublay Vélizy

CURRENT METAR :
  • 301300Z AUTO 22009KT 190V260 9999 FEW019 SCT026 OVC036 15/11 Q1024 NOSIG

EXPIRED METARs :
  • 301230Z AUTO 22007KT 190V250 9999 SCT019 OVC031 15/11 Q1024 NOSIG
  • 301200Z AUTO 23006KT 190V260 9999 FEW020 OVC031 14/11 Q1024 NOSIG
  • 301130Z AUTO 22007KT 190V250 9999 SCT017 BKN025 OVC030 14/11 Q1024 NOSIG
  • 301100Z AUTO 23007KT 190V260 9999 SCT016 BKN024 OVC030 14/11 Q1024 NOSIG
  • 301030Z AUTO 22008KT 190V260 9999 FEW018 OVC026 14/11 Q1024 NOSIG

TAF TAF LFPV
Valid from the 30 at 09:00 until the 31 at 09:00 UTC


300800Z 3009/3109 22010G20KT 9999 BKN014 TX15/3015Z TN09/3103Z
BECMG 3010/3012 BKN020
PROB40
TEMPO 3103/3107 3000 BR



MET'MAP, your aeronautical weather chart ! - Copyright ORBIFLY December 2007 - Disclaimer

ORBIFLY MET'MAP TEAM :

Programming & Development : Alexandra Zaïnal
Concept & original design : Baudouin d'Aumeries
Assistance for programming : Marc-Olivier Méhu
Technical & hardware support : Manuel Goepfert

Contact : metmap@orbifly.com




SOURCES & CREDITS :

   NOAA